Nyala, Nevada Weather observations

Data are for observation ending at time listed.
 Day   Time    Ave.   Ave.  Ave.  Vector   Max.   Stn.    Total    Solar   Ave.  
  of    of     Air    Rel.  Wind   Wind    Wind   Baro.  Precip.   Rad.    Soil  
Year   Day     Temp.  Hum.  Speed  Dir.    Gust   Pres.                    Temp. 
2016   (PST)    F      %     mph   deg.    mph     mb.     in.     W/m2     F   
------------------------------------------------------------------------------
  38   14:00   20.7    72    1.8   349      5.0    867     0.00      64    24.7
  38   15:00   19.1    76    2.8   241      6.1    867     0.00      48    24.9
  38   16:00   17.7    79    1.4   274      3.5    866     0.00      33    24.9
  38   17:00   17.1    80    0.8   304      2.6    867     0.00      15    25.0
  38   18:00   10.0    83    1.8   152      3.8    867     0.00       1    25.1
  38   19:00    6.4    88    2.7   153      5.3    867     0.00       0    25.1
  38   20:00    5.9    89    1.7   148      3.9    868     0.00       0    25.0
  38   21:00    4.9    88    2.3   154      5.8    868     0.00       0    25.0
  38   22:00    5.2    89    1.2    75      4.5    868     0.00       0    24.9
  38   23:00    5.0    89    0.8    84      4.2    868     0.00       0    24.8
  39    0:00    2.9    88    2.1   166      6.2    869     0.00       0    24.7
  39    1:00    1.9    88    1.1    81      3.7    869     0.00       0    24.6
  39    2:00    1.3    87    0.8   114      3.1    869     0.00       0    24.5
  39    3:00    1.4    87    0.4    78      2.3    869     0.00       0    24.4
  39    4:00   -0.5    87    1.2   208      3.4    869     0.00       0    24.3
  39    5:00   -0.4    86    0.3   238      1.4    869     0.00       0    24.2
  39    6:00   -1.6    85    0.5   131      1.4    869     0.00       0    24.0
  39    7:00   -0.9    86    0.2    93      0.9    869     0.00       0    23.9
  39    8:00   -1.4    85    0.3     2      1.5    870     0.00       7    23.8
  39    9:00    4.7    87    0.3   308      1.6    870     0.00     112    23.7
  39   10:00   12.8    86    0.6    33      2.4    870     0.00     137    23.8
  39   11:00   16.5    78    1.1   218      2.9    870     0.00     127    23.8
  39   12:00   19.0    76    1.7   230      4.3    869     0.00     109    23.8
  39   13:00   23.4    71    1.2   271      3.2    868     0.00      86    23.8

Return to Nyala, Nevada graphs page.


Western Regional Climate Center,wrcc@dri.edu